METAR Data
IDs: Format: Raw Decoded Include TAF

Data at: 1950 UTC 25 Sep 2020

KPCZ 251935Z AUTO 17012KT 10SM CLR 26/15 A2982 RMK AO2 T02610146
KPCZ 251915Z AUTO 18014G19KT 10SM CLR 26/15 A2983 RMK AO2 T02600148
KPCZ 251855Z AUTO 18011G16KT 10SM CLR 26/15 A2984 RMK AO2 T02610154
KPCZ 251835Z AUTO 18008KT 10SM CLR 26/16 A2985 RMK AO2 T02590155
KPCZ 251815Z AUTO 16010KT 10SM CLR 26/15 A2986 RMK AO2 T02560153
KPCZ 251755Z AUTO 17011G15KT 10SM CLR 26/15 A2986 RMK AO2 T02560151 10256 20138
KPCZ 251735Z AUTO 19010KT 10SM CLR 25/15 A2987 RMK AO2 T02490152
KPCZ 251715Z AUTO 17010KT 10SM CLR 25/15 A2988 RMK AO2 T02460150
KPCZ 251655Z AUTO 17011KT 10SM CLR 25/16 A2988 RMK AO2 T02460158
KPCZ 251635Z AUTO 20012KT 10SM CLR 24/16 A2989 RMK AO2 T02400155
KPCZ 251615Z AUTO 20009KT 10SM CLR 24/16 A2990 RMK AO2 T02350157
KPCZ 251555Z AUTO 20009KT 10SM CLR 23/16 A2991 RMK AO2 T02280156
KPCZ 251535Z AUTO 19009KT 10SM CLR 22/16 A2991 RMK AO2 T02190159
KPCZ 251515Z AUTO 19011KT 10SM CLR 21/15 A2991 RMK AO2 T02070154
KPCZ 251455Z AUTO 18007KT 10SM CLR 18/17 A2992 RMK AO2 T01830166
KPCZ 251435Z AUTO 20008KT 160V220 10SM CLR 18/18 A2992 RMK AO2 T01790175
KPCZ 251415Z AUTO 18006KT 10SM CLR 18/17 A2992 RMK AO2 T01780173
KPCZ 251355Z AUTO 19004KT 10SM CLR 18/17 A2992 RMK AO2 T01750170
KPCZ 251335Z AUTO 18003KT 10SM CLR 17/16 A2992 RMK AO2 T01680163
KPCZ 251315Z AUTO 00000KT 10SM SCT060 16/15 A2992 RMK AO2 T01570153
KPCZ 251255Z AUTO 17004KT 10SM BKN060 16/15 A2992 RMK AO2 T01570153
KPCZ 251235Z AUTO 00000KT 10SM CLR 15/15 A2992 RMK AO2 T01510146
KPCZ 251215Z AUTO 19003KT 7SM CLR 14/14 A2991 RMK AO2 T01430139
KPCZ 251155Z AUTO 15003KT 3/4SM BR VV005 14/14 A2990 RMK AO2 70118 T01380135 10163 20135
KPCZ 251135Z AUTO 00000KT 4SM BR CLR 14/14 A2990 RMK AO2 T01410136
KPCZ 251115Z AUTO 00000KT 1SM BR VV007 14/14 A2990 RMK AO2 T01420137
KPCZ 251055Z AUTO 00000KT 2SM BR SCT060 14/14 A2990 RMK AO2 T01380135
KPCZ 251035Z AUTO 00000KT 1SM BR BKN060 14/13 A2990 RMK AO2 T01360132
KPCZ 251015Z AUTO 00000KT 1/2SM FG SCT055 14/13 A2990 RMK AO2 T01360132
KPCZ 250955Z AUTO 00000KT 1/2SM FG VV005 14/13 A2990 RMK AO2 T01350131
KPCZ 250935Z AUTO 00000KT 1/2SM FG VV005 14/13 A2990 RMK AO2 T01370133
KPCZ 250915Z AUTO 00000KT 1/4SM FG VV002 14/14 A2989 RMK AO2 T01410136
KPCZ 250855Z AUTO 00000KT 1/4SM FG VV002 14/14 A2989 RMK AO2 T01430138
KPCZ 250835Z AUTO 00000KT 1/4SM FG VV002 15/14 A2988 RMK AO2 T01490144
KPCZ 250815Z AUTO 00000KT 1/4SM FG OVC001 16/15 A2988 RMK AO2 T01550150
KPCZ 250755Z AUTO 00000KT 1/2SM FG OVC001 16/15 A2989 RMK AO2 T01570152
KPCZ 250735Z AUTO 00000KT M1/4SM FG OVC001 16/16 A2989 RMK AO2 T01610156
KPCZ 250715Z AUTO 00000KT 1/4SM FG OVC001 16/16 A2989 RMK AO2 T01630158
KPCZ 250655Z AUTO 00000KT 1/4SM FG OVC001 16/16 A2988 RMK AO2 T01600155
KPCZ 250635Z AUTO 00000KT M1/4SM FG BKN001 16/16 A2988 RMK AO2 T01600155
KPCZ 250615Z AUTO 00000KT 1/4SM FG VV002 16/16 A2988 RMK AO2 T01620157
KPCZ 250555Z AUTO 00000KT 1/4SM FG VV002 16/16 A2989 RMK AO2 P0001 60005 T01630158 10187 20163
KPCZ 250535Z AUTO 00000KT 1/4SM FG VV002 17/17 A2989 RMK AO2 P0001 T01700165
KPCZ 250515Z AUTO 00000KT 1 1/2SM BR BKN034 18/17 A2989 RMK AO2 T01770172
KPCZ 250455Z AUTO 00000KT 3SM BR SCT030 BKN038 BKN044 17/17 A2989 RMK AO2 T01740169 402360130
KPCZ 250435Z AUTO 12003KT 7SM BKN027 BKN043 BKN050 18/17 A2989 RMK AO2 T01780172
KPCZ 250415Z AUTO 00000KT 7SM BKN027 OVC036 18/17 A2990 RMK AO2 T01800174
KPCZ 250355Z AUTO 00000KT 5SM BR SCT026 BKN033 BKN041 18/17 A2990 RMK AO2 T01780172
KPCZ 250335Z AUTO 11003KT 4SM BR SCT036 SCT042 BKN050 18/17 A2990 RMK AO2 T01780172
KPCZ 250315Z AUTO 00000KT 7SM BKN033 BKN042 BKN050 18/18 A2990 RMK AO2 T01800175
KPCZ 250255Z AUTO 00000KT 10SM SCT017 BKN031 OVC049 18/18 A2989 RMK AO2 P0001 60004 T01820176
KPCZ 250235Z AUTO 00000KT 10SM SCT015 SCT019 OVC030 18/18 A2990 RMK AO2 P0001 T01820176
KPCZ 250215Z AUTO 00000KT 7SM -RA SCT021 BKN032 OVC043 18/18 A2990 RMK AO2 P0001 T01820176
KPCZ 250155Z AUTO 00000KT 7SM SCT018 BKN024 OVC033 18/18 A2989 RMK AO2 P0001 T01820176
KPCZ 250135Z AUTO 00000KT 10SM BKN020 OVC038 18/18 A2989 RMK AO2 T01820175
KPCZ 250115Z AUTO 11005KT 10SM SCT017 SCT022 OVC038 18/18 A2989 RMK AO2 T01820175
KPCZ 250055Z AUTO 11003KT 10SM BKN040 OVC055 18/18 A2989 RMK AO2 P0002 T01820175
KPCZ 250035Z AUTO 11003KT 10SM SCT025 BKN046 OVC090 18/18 A2989 RMK AO2 P0002 T01840176
KPCZ 250015Z AUTO 14003KT 10SM -RA SCT019 BKN027 OVC080 19/18 A2989 RMK AO2 P0002 T01850177
KPCZ 242355Z AUTO 00000KT 4SM +RA SCT007 BKN024 OVC031 19/18 A2989 RMK AO2 P0043 60112 T01870179 10236 20187
KPCZ 242335Z AUTO 27005KT 7SM +RA SCT007 BKN012 OVC028 19/18 A2989 RMK AO2 P0027 T01900180
KPCZ 242315Z AUTO 12003KT 2SM +RA BKN012 OVC020 19/18 A2987 RMK AO2 P0018 T01910184
KPCZ 242255Z AUTO 00000KT 1 1/2SM +RA SCT009 BKN013 OVC030 19/18 A2987 RMK AO2 P0046 T01900180
KPCZ 242235Z AUTO 12007KT 1SM +RA BKN009 BKN016 OVC021 20/19 A2987 RMK AO2 P0023 T01950185
KPCZ 242215Z AUTO 11003KT 4SM RA SCT016 SCT038 BKN048 20/19 A2988 RMK AO2 P0002 T01970186
KPCZ 242155Z AUTO 00000KT 10SM -RA SCT020 BKN060 OVC070 20/18 A2988 RMK AO2 P0022 T01970183
KPCZ 242135Z AUTO 00000KT 5SM -RA SCT010 BKN024 OVC080 20/18 A2987 RMK AO2 P0020 T01970181
KPCZ 242115Z AUTO 15005KT 7SM -RA SCT023 BKN039 OVC070 21/18 A2985 RMK AO2 T02090181
KPCZ 242055Z AUTO 12003KT 10SM -DZ SCT026 BKN070 OVC085 21/19 A2985 RMK AO2 T02120187
KPCZ 242035Z AUTO 00000KT 10SM -DZ SCT032 SCT046 BKN095 22/19 A2985 RMK AO2 T02160186
KPCZ 242015Z AUTO 00000KT 10SM -RA SCT028 BKN044 OVC095 21/18 A2985 RMK AO2 T02120181
KPCZ 241955Z AUTO 16005KT 7SM -RA SCT028 BKN036 OVC050 22/18 A2985 RMK AO2 T02170180
KPCZ 241935Z AUTO 15005KT 10SM -RA SCT031 BKN049 OVC110 23/17 A2986 RMK AO2 T02300168
KPCZ 241915Z AUTO 13005KT 10SM BKN120 24/17 A2986 RMK AO2 T02360170
KPCZ 241855Z AUTO 14005KT 10SM SCT120 24/17 A2987 RMK AO2 T02360166
KPCZ 241835Z AUTO 14004KT 10SM CLR 23/17 A2987 RMK AO2 T02330166
KPCZ 241815Z AUTO 14004KT 10SM CLR 23/17 A2988 RMK AO2 T02260165
KPCZ 241755Z AUTO 13004KT 10SM CLR 22/16 A2989 RMK AO2 T02200162 10220 20138
KPCZ 241735Z AUTO 15004KT 10SM CLR 22/16 A2990 RMK AO2 T02170162
KPCZ 241715Z AUTO 11005KT 10SM CLR 21/16 A2990 RMK AO2 T02080159
KPCZ 241655Z AUTO 14004KT 10SM CLR 20/16 A2990 RMK AO2 T02020155
KPCZ 241635Z AUTO 13004KT 10SM SCT120 20/16 A2990 RMK AO2 T02010159
KPCZ 241615Z AUTO 13003KT 10SM CLR 20/16 A2991 RMK AO2 T01970156
KPCZ 241555Z AUTO 09003KT 10SM CLR 20/16 A2991 RMK AO2 T01970155
KPCZ 241535Z AUTO 11004KT 10SM CLR 19/16 A2992 RMK AO2 T01870156
KPCZ 241515Z AUTO 13005KT 10SM CLR 18/16 A2993 RMK AO2 T01790155
KPCZ 241455Z AUTO 09004KT 10SM SCT045 SCT060 SCT120 18/16 A2993 RMK AO2 T01760156
KPCZ 241435Z AUTO 00000KT 10SM SCT045 SCT055 SCT120 17/15 A2993 RMK AO2 T01700152
KPCZ 241415Z AUTO 07003KT 10SM CLR 17/16 A2993 RMK AO2 T01680155
KPCZ 241355Z AUTO 00000KT 10SM SCT120 16/15 A2993 RMK AO2 T01620154
KPCZ 241335Z AUTO 00000KT 10SM SCT050 SCT060 16/15 A2992 RMK AO2 T01580152
KPCZ 241315Z AUTO 00000KT 10SM BKN050 BKN060 15/15 A2992 RMK AO2 T01540149
KPCZ 241255Z AUTO 35005KT 7SM CLR 15/14 A2992 RMK AO2 T01450139
KPCZ 241235Z AUTO 00000KT 7SM CLR 14/14 A2990 RMK AO2 T01400135
KPCZ 241215Z AUTO 00000KT 7SM CLR 14/13 A2991 RMK AO2 T01380131
KPCZ 241155Z AUTO 00000KT 7SM CLR 14/13 A2991 RMK AO2 T01400133 10150 20130
KPCZ 241135Z AUTO 00000KT 10SM CLR 14/13 A2991 RMK AO2 T01390131
KPCZ 241115Z AUTO 18003KT 7SM CLR 14/13 A2991 RMK AO2 T01350126
KPCZ 241055Z AUTO 00000KT 10SM SCT095 15/14 A2991 RMK AO2 T01450137
KPCZ 241035Z AUTO 00000KT 10SM SCT050 BKN095 15/14 A2991 RMK AO2 T01480141
KPCZ 241015Z AUTO 01003KT 10SM BKN050 BKN085 15/14 A2991 RMK AO2 T01500143
KPCZ 240955Z AUTO 00000KT 10SM BKN050 OVC085 15/14 A2991 RMK AO2 T01480141
KPCZ 240935Z AUTO 00000KT 10SM SCT050 SCT085 15/14 A2991 RMK AO2 T01470140
KPCZ 240915Z AUTO 00000KT 10SM SCT085 15/14 A2990 RMK AO2 T01450140
KPCZ 240855Z AUTO 00000KT 10SM CLR 14/14 A2990 RMK AO2 T01440137
KPCZ 240835Z AUTO 00000KT 10SM CLR 14/14 A2990 RMK AO2 T01400135
KPCZ 240815Z AUTO 00000KT 10SM CLR 14/14 A2990 RMK AO2 T01410135
KPCZ 240755Z AUTO 00000KT 10SM CLR 14/13 A2990 RMK AO2 T01400133